Weather Data

Pearl Creek Farm: 8878 N Farm Road 75, Walnut Grove MO 65770

<== Previous Day (Friday 25 Jan 2013) | Next Day (Sunday 27 Jan 2013) ==>

Summary Precipitation Data For Saturday 26 January 2013

ElementValueUnits
Precipitation0"
Notes(none)
SourcePearl Creek Farm

Summary Temperature Data For Saturday 26 January 2013

ElementValueUnits
High Temperature56 oF
Low Temperature29 oF
Average Temperature41 oF
High Humidity86 %
Low Humidity40 %
Average Humidity66 %
SourcePearl Creek Farm

Detail Temperature Data For Saturday 26 January 2013

Date / TimeTemp (F)RH (%)Dew Pt (F)Report Date / TimeSource
2013-01-26 00:00:00 30 82 25.2 2013-01-27 10:51:56 Pearl Creek Farm
2013-01-26 00:30:00 29 82 24.2 2013-01-27 10:51:56 Pearl Creek Farm
2013-01-26 01:00:00 30 83 25.3 2013-01-27 10:51:56 Pearl Creek Farm
2013-01-26 01:30:00 31 83 26.3 2013-01-27 10:51:56 Pearl Creek Farm
2013-01-26 02:00:00 30 82 25.0 2013-01-27 10:51:56 Pearl Creek Farm
2013-01-26 02:30:00 31 83 26.3 2013-01-27 10:51:56 Pearl Creek Farm
2013-01-26 03:00:00 31 83 26.5 2013-01-27 10:51:56 Pearl Creek Farm
2013-01-26 03:30:00 31 83 26.5 2013-01-27 10:51:56 Pearl Creek Farm
2013-01-26 04:00:00 31 85 26.9 2013-01-27 10:51:56 Pearl Creek Farm
2013-01-26 04:30:00 30 84 25.8 2013-01-27 10:51:56 Pearl Creek Farm
2013-01-26 05:00:00 30 85 26.1 2013-01-27 10:51:56 Pearl Creek Farm
2013-01-26 05:30:00 30 84 25.6 2013-01-27 10:51:56 Pearl Creek Farm
2013-01-26 06:00:00 30 83 25.5 2013-01-27 10:51:56 Pearl Creek Farm
2013-01-26 06:30:00 29 84 24.8 2013-01-27 10:51:56 Pearl Creek Farm
2013-01-26 07:00:00 29 85 24.9 2013-01-27 10:51:56 Pearl Creek Farm
2013-01-26 07:30:00 29 86 25.2 2013-01-27 10:51:56 Pearl Creek Farm
2013-01-26 08:00:00 30 86 26.2 2013-01-27 10:51:56 Pearl Creek Farm
2013-01-26 08:30:00 32 85 27.9 2013-01-27 10:51:56 Pearl Creek Farm
2013-01-26 09:00:00 34 82 29.1 2013-01-27 10:51:56 Pearl Creek Farm
2013-01-26 09:30:00 36 81 30.8 2013-01-27 10:51:56 Pearl Creek Farm
2013-01-26 10:00:00 39 76 31.9 2013-01-27 10:51:56 Pearl Creek Farm
2013-01-26 10:30:00 43 66 32.4 2013-01-27 10:51:56 Pearl Creek Farm
2013-01-26 11:00:00 46 60 32.9 2013-01-27 10:51:56 Pearl Creek Farm
2013-01-26 11:30:00 48 55 32.4 2013-01-27 10:51:56 Pearl Creek Farm
2013-01-26 12:00:00 50 52 33.1 2013-01-27 10:51:56 Pearl Creek Farm
2013-01-26 12:30:00 52 49 33.2 2013-01-27 10:51:56 Pearl Creek Farm
2013-01-26 13:00:00 53 46 32.8 2013-01-27 10:51:56 Pearl Creek Farm
2013-01-26 13:30:00 54 44 32.6 2013-01-27 10:51:56 Pearl Creek Farm
2013-01-26 14:00:00 55 44 33.2 2013-01-27 10:51:56 Pearl Creek Farm
2013-01-26 14:30:00 55 43 32.7 2013-01-27 10:51:56 Pearl Creek Farm
2013-01-26 15:00:00 56 40 32.1 2013-01-27 10:51:56 Pearl Creek Farm
2013-01-26 15:30:00 56 43 33.9 2013-01-27 10:51:56 Pearl Creek Farm
2013-01-26 16:00:00 56 43 33.9 2013-01-27 10:51:56 Pearl Creek Farm
2013-01-26 16:30:00 55 44 33.5 2013-01-27 10:51:56 Pearl Creek Farm
2013-01-26 17:00:00 53 45 32.0 2013-01-27 10:51:56 Pearl Creek Farm
2013-01-26 17:30:00 50 46 29.8 2013-01-27 10:51:56 Pearl Creek Farm
2013-01-26 18:00:00 47 48 28.4 2013-01-27 10:51:56 Pearl Creek Farm
2013-01-26 18:30:00 44 56 29.1 2013-01-27 10:51:56 Pearl Creek Farm
2013-01-26 19:00:00 41 61 28.4 2013-01-27 10:51:56 Pearl Creek Farm
2013-01-26 19:30:00 40 64 28.8 2013-01-27 10:51:56 Pearl Creek Farm
2013-01-26 20:00:00 40 63 28.5 2013-01-27 10:51:56 Pearl Creek Farm
2013-01-26 20:30:00 42 58 28.3 2013-01-27 10:51:56 Pearl Creek Farm
2013-01-26 21:00:00 43 57 28.8 2013-01-27 10:51:56 Pearl Creek Farm
2013-01-26 21:30:00 43 57 28.6 2013-01-27 10:51:56 Pearl Creek Farm
2013-01-26 22:00:00 45 56 30.3 2013-01-27 10:51:56 Pearl Creek Farm
2013-01-26 22:30:00 45 56 30.1 2013-01-27 10:51:56 Pearl Creek Farm
2013-01-26 23:00:00 45 55 29.6 2013-01-27 10:51:56 Pearl Creek Farm
2013-01-26 23:30:00 45 54 29.4 2013-01-27 10:51:56 Pearl Creek Farm

A total of 48 rows are displayed.